createdAt,value
2019-05-22T00:04:33.640Z,31.93
2019-05-22T00:09:32.540Z,32.33
2019-05-22T00:14:30.214Z,30.60
2019-05-22T00:19:28.142Z,30.57
2019-05-22T00:24:24.556Z,32.10
2019-05-22T00:29:22.056Z,32.67
2019-05-22T00:34:18.301Z,31.53
2019-05-22T00:39:16.257Z,32.70
2019-05-22T00:44:13.575Z,33.63
2019-05-22T00:49:10.084Z,34.83
2019-05-22T00:54:23.241Z,36.17
2019-05-22T00:59:22.755Z,37.33
2019-05-22T01:04:20.475Z,39.07
2019-05-22T01:09:36.844Z,40.53
2019-05-22T01:14:42.315Z,40.10
2019-05-22T01:19:31.057Z,42.03
2019-05-22T01:24:26.834Z,39.93
2019-05-22T01:29:24.249Z,41.70
2019-05-22T01:34:22.518Z,39.57
2019-05-22T01:39:30.855Z,39.23
2019-05-22T01:44:27.783Z,40.43
2019-05-22T01:49:24.876Z,38.13
2019-05-22T01:54:21.274Z,38.83
2019-05-22T01:59:18.909Z,39.03
2019-05-22T02:04:16.770Z,40.13
2019-05-22T02:09:21.034Z,40.63
2019-05-22T02:14:19.588Z,41.17
2019-05-22T02:19:16.019Z,40.13
2019-05-22T02:24:11.745Z,39.90
2019-05-22T02:29:08.765Z,37.27
2019-05-22T02:34:06.331Z,37.70
2019-05-22T02:39:04.654Z,34.97
2019-05-22T02:44:01.128Z,35.90
2019-05-22T02:48:57.003Z,34.40
2019-05-22T02:53:55.213Z,34.40
2019-05-22T02:58:51.283Z,33.70
2019-05-22T03:03:48.462Z,35.60
2019-05-22T03:08:55.746Z,36.03
2019-05-22T03:13:57.087Z,37.00
2019-05-22T03:19:07.917Z,38.77
2019-05-22T03:23:51.745Z,41.07
2019-05-22T03:28:49.065Z,40.50
2019-05-22T03:33:45.235Z,41.00
2019-05-22T03:38:41.997Z,44.00
2019-05-22T03:43:38.076Z,42.47
2019-05-22T03:48:34.728Z,44.73
2019-05-22T03:53:30.807Z,42.07
2019-05-22T03:58:28.553Z,41.60
2019-05-22T04:03:25.682Z,41.13
2019-05-22T04:08:24.749Z,42.23
2019-05-22T04:13:21.180Z,40.17
2019-05-22T04:18:17.834Z,40.13
2019-05-22T04:23:13.801Z,38.80
2019-05-22T04:28:10.379Z,40.10
2019-05-22T04:33:06.782Z,37.40
2019-05-22T04:38:03.268Z,37.10
2019-05-22T04:42:59.702Z,36.50
2019-05-22T04:47:57.980Z,36.20
2019-05-22T04:52:55.137Z,37.17
2019-05-22T04:57:52.030Z,35.30
2019-05-22T05:02:48.287Z,36.03
2019-05-22T05:07:44.972Z,35.63
2019-05-22T05:12:41.366Z,34.40
2019-05-22T05:17:37.907Z,35.40
2019-05-22T05:22:41.989Z,36.63
2019-05-22T05:27:37.856Z,34.17
2019-05-22T05:32:33.809Z,36.60
2019-05-22T05:37:31.649Z,33.20
2019-05-22T05:42:27.785Z,33.23
2019-05-22T05:47:23.859Z,34.67
2019-05-22T05:52:20.686Z,32.40
2019-05-22T05:57:33.639Z,33.17
2019-05-22T06:02:29.911Z,31.87
2019-05-22T06:07:25.761Z,31.70
2019-05-22T06:12:22.153Z,31.57
2019-05-22T06:17:27.334Z,31.83
2019-05-22T06:22:23.270Z,30.73
2019-05-22T06:27:22.239Z,32.47
2019-05-22T06:32:29.725Z,29.93
2019-05-22T06:37:28.847Z,29.60
2019-05-22T06:42:25.351Z,31.43
2019-05-22T06:47:21.519Z,31.10
2019-05-22T06:52:18.408Z,28.70
2019-05-22T06:57:19.765Z,28.80
2019-05-22T07:02:17.229Z,27.60
2019-05-22T07:07:13.579Z,26.70
2019-05-22T07:12:10.168Z,25.63
2019-05-22T07:17:07.319Z,25.00
2019-05-22T07:22:04.084Z,24.83
2019-05-22T07:27:02.663Z,25.57
2019-05-22T07:32:02.202Z,25.10
2019-05-22T07:36:57.797Z,25.77
2019-05-22T07:41:54.490Z,24.87
2019-05-22T07:46:50.559Z,24.80
2019-05-22T07:51:53.997Z,24.60
2019-05-22T07:56:45.389Z,23.70
2019-05-22T08:01:41.346Z,23.47
2019-05-22T08:06:37.509Z,24.17
2019-05-22T08:11:33.984Z,24.70
2019-05-22T08:16:29.950Z,24.47
2019-05-22T08:21:26.637Z,22.30
2019-05-22T08:26:24.516Z,24.20
2019-05-22T08:31:22.404Z,22.70
2019-05-22T08:36:18.596Z,21.33
2019-05-22T08:41:16.382Z,20.77
2019-05-22T08:46:12.907Z,20.63
2019-05-22T08:51:09.209Z,20.73
2019-05-22T08:56:06.106Z,20.90
2019-05-22T09:01:02.247Z,18.20
2019-05-22T09:05:58.513Z,15.80
2019-05-22T09:10:54.477Z,16.50
2019-05-22T09:15:50.456Z,16.83
2019-05-22T09:20:49.730Z,17.20
2019-05-22T09:25:46.117Z,18.67
2019-05-22T09:30:42.286Z,17.93
2019-05-22T09:35:38.559Z,16.93
2019-05-22T09:40:35.266Z,16.87
2019-05-22T09:45:31.460Z,18.27
2019-05-22T09:50:28.113Z,19.20
2019-05-22T09:55:24.999Z,18.73
2019-05-22T10:00:21.977Z,20.27
2019-05-22T10:05:18.948Z,22.57
2019-05-22T10:10:15.926Z,21.20
2019-05-22T10:15:12.169Z,21.60
2019-05-22T10:20:09.350Z,23.50
2019-05-22T10:25:15.717Z,23.63
2019-05-22T10:30:06.674Z,24.20
2019-05-22T10:35:03.674Z,23.60
2019-05-22T10:39:59.638Z,24.60
2019-05-22T10:44:55.503Z,25.90
2019-05-22T10:49:51.857Z,24.07
2019-05-22T10:54:48.497Z,23.50
2019-05-22T10:59:44.525Z,23.33
2019-05-22T11:04:40.925Z,22.07
2019-05-22T11:09:37.494Z,22.20
2019-05-22T11:14:33.875Z,21.90
2019-05-22T11:19:30.582Z,22.90
2019-05-22T11:24:26.647Z,21.17
2019-05-22T11:29:22.984Z,18.60
2019-05-22T11:34:18.963Z,16.73
2019-05-22T11:39:17.328Z,16.43
2019-05-22T11:44:13.825Z,15.43
2019-05-22T11:49:09.947Z,13.47
2019-05-22T11:54:09.435Z,13.37
2019-05-22T11:59:05.051Z,14.27
2019-05-22T12:04:02.005Z,13.23
2019-05-22T12:08:58.171Z,13.23
2019-05-22T12:13:54.535Z,13.53
2019-05-22T12:18:52.029Z,12.37
2019-05-22T12:23:48.120Z,12.97
2019-05-22T12:28:44.075Z,11.43
2019-05-22T12:33:40.932Z,10.47
2019-05-22T12:38:36.986Z,11.27
2019-05-22T12:43:33.761Z,11.73
2019-05-22T12:48:29.723Z,11.23
2019-05-22T12:53:26.314Z,11.00
2019-05-22T12:58:22.482Z,10.33
2019-05-22T13:03:19.059Z,10.50
2019-05-22T13:08:15.336Z,10.53
2019-05-22T13:13:11.868Z,11.10
2019-05-22T13:18:09.445Z,9.90
2019-05-22T13:23:07.116Z,9.80
2019-05-22T13:28:03.414Z,10.53
2019-05-22T13:32:59.279Z,9.60
2019-05-22T13:37:56.077Z,10.40
2019-05-22T13:42:52.181Z,10.50
2019-05-22T13:47:48.467Z,10.47
2019-05-22T13:52:45.642Z,9.53
2019-05-22T13:57:42.217Z,10.70
2019-05-22T14:02:40.898Z,10.97
2019-05-22T14:07:36.827Z,9.07
2019-05-22T14:12:32.762Z,8.20
2019-05-22T14:17:28.734Z,7.60
2019-05-22T14:22:24.718Z,6.90
2019-05-22T14:27:20.810Z,7.60
2019-05-22T14:32:17.558Z,7.53
2019-05-22T14:37:14.025Z,7.37
2019-05-22T14:42:10.382Z,7.00
2019-05-22T14:47:14.545Z,7.70
2019-05-22T14:52:06.128Z,7.20
2019-05-22T14:57:02.673Z,7.70
2019-05-22T15:01:59.449Z,7.73
2019-05-22T15:06:55.906Z,7.17
2019-05-22T15:11:51.913Z,6.97
2019-05-22T15:16:48.022Z,5.37
2019-05-22T15:21:44.108Z,4.97
2019-05-22T15:26:40.669Z,4.93
2019-05-22T15:31:36.705Z,5.13
2019-05-22T15:36:32.662Z,5.13
2019-05-22T15:41:29.645Z,5.70
2019-05-22T15:46:26.703Z,5.80
2019-05-22T15:51:25.571Z,5.67
2019-05-22T15:56:21.886Z,6.53
2019-05-22T16:01:19.658Z,5.93
2019-05-22T16:06:16.013Z,6.80
2019-05-22T16:11:13.810Z,6.43
2019-05-22T16:16:10.179Z,5.93
2019-05-22T16:21:07.216Z,5.73
2019-05-22T16:26:05.256Z,6.63
2019-05-22T16:31:02.515Z,9.97
2019-05-22T16:35:58.385Z,6.73
2019-05-22T16:40:55.077Z,6.03
2019-05-22T16:45:51.744Z,7.57
2019-05-22T16:50:48.429Z,6.60
2019-05-22T16:55:44.502Z,6.13
2019-05-22T17:00:40.976Z,6.50
2019-05-22T17:05:37.446Z,5.87
2019-05-22T17:10:33.897Z,6.20
2019-05-22T17:15:31.181Z,5.97
2019-05-22T17:20:28.914Z,6.10
2019-05-22T17:25:25.367Z,5.67
2019-05-22T17:30:22.400Z,6.60
2019-05-22T17:35:19.218Z,6.70
2019-05-22T17:40:18.097Z,6.30
2019-05-22T17:45:16.093Z,6.60
2019-05-22T17:50:26.003Z,7.47
2019-05-22T17:55:12.418Z,7.43
2019-05-22T18:00:10.692Z,7.10
2019-05-22T18:05:07.864Z,6.87
2019-05-22T18:10:05.105Z,7.37
2019-05-22T18:15:01.799Z,6.80
2019-05-22T18:19:57.829Z,7.50
2019-05-22T18:24:53.962Z,7.63
2019-05-22T18:29:50.793Z,8.17
2019-05-22T18:34:46.788Z,8.30
2019-05-22T18:39:43.477Z,8.60
2019-05-22T18:44:39.399Z,7.97
2019-05-22T18:49:35.714Z,7.87
2019-05-22T18:54:31.976Z,7.90
2019-05-22T18:59:28.304Z,8.40
2019-05-22T19:04:24.307Z,8.07
2019-05-22T19:09:20.189Z,8.17
2019-05-22T19:14:16.531Z,8.70
2019-05-22T19:19:12.560Z,8.93
2019-05-22T19:24:08.830Z,9.03
2019-05-22T19:29:05.307Z,9.20
2019-05-22T19:34:01.526Z,8.97
2019-05-22T19:38:57.697Z,10.23
2019-05-22T19:43:54.142Z,10.50
2019-05-22T19:48:50.775Z,11.97
2019-05-22T19:53:47.258Z,12.47
2019-05-22T19:58:43.226Z,12.57
2019-05-22T20:03:39.198Z,13.27
2019-05-22T20:08:36.753Z,12.30
2019-05-22T20:13:33.957Z,13.17
2019-05-22T20:18:29.951Z,13.63
2019-05-22T20:23:35.110Z,13.40
2019-05-22T20:28:24.606Z,14.03
2019-05-22T20:33:20.696Z,14.97
2019-05-22T20:38:16.661Z,14.97
2019-05-22T20:43:12.860Z,15.33
2019-05-22T20:48:11.673Z,14.30
2019-05-22T20:53:10.044Z,13.73
2019-05-22T20:58:07.453Z,13.77
2019-05-22T21:03:03.460Z,12.73
2019-05-22T21:08:05.057Z,12.27
2019-05-22T21:13:02.618Z,12.33
2019-05-22T21:17:58.608Z,14.00
2019-05-22T21:22:54.882Z,14.40
2019-05-22T21:27:51.136Z,13.43
2019-05-22T21:32:48.599Z,16.00
2019-05-22T21:37:44.579Z,15.70
2019-05-22T21:42:42.971Z,15.50
2019-05-22T21:47:41.047Z,15.53
2019-05-22T21:52:37.956Z,16.10
2019-05-22T21:57:35.399Z,15.30
2019-05-22T22:02:35.083Z,14.57
2019-05-22T22:07:31.447Z,16.27
2019-05-22T22:12:28.014Z,15.27
2019-05-22T22:17:25.484Z,13.60
2019-05-22T22:22:23.977Z,15.70
2019-05-22T22:27:20.047Z,15.30
2019-05-22T22:32:17.942Z,15.33
2019-05-22T22:37:14.355Z,13.77
2019-05-22T22:42:11.087Z,13.07
2019-05-22T22:47:23.961Z,14.30
2019-05-22T22:52:20.548Z,13.33
2019-05-22T22:57:17.615Z,13.80
2019-05-22T23:02:16.530Z,14.73
2019-05-22T23:07:12.854Z,16.30
2019-05-22T23:12:09.278Z,15.90
2019-05-22T23:17:05.565Z,14.83
2019-05-22T23:22:03.039Z,14.33
2019-05-22T23:26:59.137Z,14.97
2019-05-22T23:31:55.320Z,15.27
2019-05-22T23:36:52.008Z,15.20
2019-05-22T23:41:48.799Z,14.70
2019-05-22T23:46:46.130Z,14.13
2019-05-22T23:51:42.890Z,14.37
2019-05-22T23:56:39.349Z,14.80
